createdAt,value
2018-12-15T00:00:31.674Z,1018.05
2018-12-15T00:01:31.678Z,1018.05
2018-12-15T00:02:31.648Z,1018.07
2018-12-15T00:03:31.636Z,1018.07
2018-12-15T00:04:31.625Z,1018.08
2018-12-15T00:05:31.616Z,1018.08
2018-12-15T00:06:31.631Z,1018.05
2018-12-15T00:07:31.630Z,1018.04
2018-12-15T00:08:31.581Z,1018.02
2018-12-15T00:09:31.610Z,1018.12
2018-12-15T00:10:31.559Z,1018.00
2018-12-15T00:11:31.586Z,1017.99
2018-12-15T00:12:31.542Z,1018.00
2018-12-15T00:13:31.535Z,1018.02
2018-12-15T00:14:31.520Z,1017.98
2018-12-15T00:15:31.505Z,1018.09
2018-12-15T00:16:31.520Z,1018.06
2018-12-15T00:17:31.486Z,1018.10
2018-12-15T00:18:31.472Z,1018.12
2018-12-15T00:19:31.485Z,1018.08
2018-12-15T00:20:31.456Z,1018.14
2018-12-15T00:21:31.460Z,1018.04
2018-12-15T00:22:31.430Z,1018.12
2018-12-15T00:23:31.420Z,1018.17
2018-12-15T00:24:31.408Z,1018.10
2018-12-15T00:25:31.395Z,1018.14
2018-12-15T00:26:31.406Z,1018.13
2018-12-15T00:27:31.376Z,1018.13
2018-12-15T00:28:31.364Z,1018.16
2018-12-15T00:29:31.353Z,1018.22
2018-12-15T00:30:31.341Z,1018.18
2018-12-15T00:31:31.349Z,1018.19
2018-12-15T00:32:31.320Z,1018.19
2018-12-15T00:33:31.310Z,1018.19
2018-12-15T00:34:31.300Z,1018.18
2018-12-15T00:35:31.290Z,1018.22
2018-12-15T00:36:31.295Z,1018.18
2018-12-15T00:37:31.269Z,1018.26
2018-12-15T00:38:31.280Z,1018.22
2018-12-15T00:39:31.243Z,1018.23
2018-12-15T00:40:31.237Z,1018.23
2018-12-15T00:41:31.297Z,1018.27
2018-12-15T00:42:31.314Z,1018.22
2018-12-15T00:43:31.201Z,1018.21
2018-12-15T00:44:31.203Z,1018.28
2018-12-15T00:45:31.179Z,1018.28
2018-12-15T00:46:31.206Z,1018.29
2018-12-15T00:47:31.161Z,1018.29
2018-12-15T00:48:31.145Z,1018.31
2018-12-15T00:49:31.143Z,1018.30
2018-12-15T00:50:31.148Z,1018.29
2018-12-15T00:51:31.133Z,1018.31
2018-12-15T00:52:31.129Z,1018.33
2018-12-15T00:53:31.093Z,1018.36
2018-12-15T00:54:31.083Z,1018.31
2018-12-15T00:55:31.070Z,1018.27
2018-12-15T00:56:31.078Z,1018.31
2018-12-15T00:57:31.047Z,1018.30
2018-12-15T00:58:31.039Z,1018.29
2018-12-15T00:59:31.025Z,1018.34
2018-12-15T01:00:31.018Z,1018.30
2018-12-15T01:01:31.023Z,1018.33
2018-12-15T01:02:30.998Z,1018.36
2018-12-15T01:03:30.993Z,1018.35
2018-12-15T01:04:30.975Z,1018.40
2018-12-15T01:05:30.962Z,1018.39
2018-12-15T01:06:30.971Z,1018.39
2018-12-15T01:07:30.939Z,1018.43
2018-12-15T01:08:30.933Z,1018.41
2018-12-15T01:09:39.866Z,1018.40
2018-12-15T01:10:30.909Z,1018.45
2018-12-15T01:11:30.919Z,1018.48
2018-12-15T01:12:30.898Z,1018.43
2018-12-15T01:13:30.924Z,1018.47
2018-12-15T01:14:30.863Z,1018.51
2018-12-15T01:15:30.853Z,1018.45
2018-12-15T01:16:30.874Z,1018.44
2018-12-15T01:17:30.837Z,1018.50
2018-12-15T01:18:30.826Z,1018.44
2018-12-15T01:19:30.813Z,1018.45
2018-12-15T01:20:30.797Z,1018.46
2018-12-15T01:21:30.806Z,1018.47
2018-12-15T01:22:30.775Z,1018.47
2018-12-15T01:23:30.770Z,1018.47
2018-12-15T01:24:30.768Z,1018.45
2018-12-15T01:25:30.744Z,1018.48
2018-12-15T01:26:30.754Z,1018.52
2018-12-15T01:27:30.723Z,1018.52
2018-12-15T01:28:30.714Z,1018.53
2018-12-15T01:29:30.702Z,1018.54
2018-12-15T01:30:30.696Z,1018.53
2018-12-15T01:31:30.721Z,1018.58
2018-12-15T01:32:30.669Z,1018.57
2018-12-15T01:33:30.767Z,1018.66
2018-12-15T01:34:30.657Z,1018.61
2018-12-15T01:35:30.642Z,1018.64
2018-12-15T01:36:30.625Z,1018.65
2018-12-15T01:37:30.637Z,1018.68
2018-12-15T01:38:30.604Z,1018.72
2018-12-15T01:39:30.591Z,1018.74
2018-12-15T01:40:30.587Z,1018.82
2018-12-15T01:41:30.570Z,1018.85
2018-12-15T01:42:30.577Z,1018.82
2018-12-15T01:43:30.547Z,1018.85
2018-12-15T01:44:30.535Z,1018.89
2018-12-15T01:45:30.525Z,1018.91
2018-12-15T01:46:30.515Z,1018.90
2018-12-15T01:47:30.523Z,1018.97
2018-12-15T01:48:30.493Z,1018.96
2018-12-15T01:49:30.485Z,1018.93
2018-12-15T01:50:30.471Z,1018.92
2018-12-15T01:51:30.467Z,1018.96
2018-12-15T01:52:30.468Z,1018.99
2018-12-15T01:53:30.439Z,1018.99
2018-12-15T01:54:30.430Z,1019.00
2018-12-15T01:55:30.417Z,1018.99
2018-12-15T01:56:30.406Z,1018.99
2018-12-15T01:57:30.426Z,1018.98
2018-12-15T01:58:30.386Z,1019.02
2018-12-15T01:59:30.379Z,1019.01
2018-12-15T02:00:30.366Z,1019.00
2018-12-15T02:01:30.352Z,1018.98
2018-12-15T02:02:30.366Z,1018.98
2018-12-15T02:03:30.330Z,1019.01
2018-12-15T02:04:30.321Z,1019.01
2018-12-15T02:05:30.316Z,1018.97
2018-12-15T02:06:30.298Z,1019.04
2018-12-15T02:07:30.310Z,1019.02
2018-12-15T02:08:30.276Z,1019.05
2018-12-15T02:09:30.265Z,1019.03
2018-12-15T02:10:30.255Z,1019.03
2018-12-15T02:11:30.249Z,1019.06
2018-12-15T02:12:30.258Z,1019.08
2018-12-15T02:13:30.252Z,1019.03
2018-12-15T02:14:30.211Z,1019.06
2018-12-15T02:15:30.203Z,1019.03
2018-12-15T02:16:30.191Z,1018.98
2018-12-15T02:17:33.683Z,1018.95
2018-12-15T02:18:30.170Z,1018.98
2018-12-15T02:19:30.157Z,1018.98
2018-12-15T02:20:30.154Z,1018.98
2018-12-15T02:21:30.136Z,1018.96
2018-12-15T02:22:30.144Z,1018.97
2018-12-15T02:23:30.119Z,1018.99
2018-12-15T02:24:30.104Z,1018.98
2018-12-15T02:25:30.091Z,1018.96
2018-12-15T02:26:30.082Z,1018.91
2018-12-15T02:27:30.094Z,1018.96
2018-12-15T02:28:30.061Z,1018.94
2018-12-15T02:29:30.060Z,1018.94
2018-12-15T02:30:30.041Z,1018.91
2018-12-15T02:31:30.029Z,1018.94
2018-12-15T02:32:30.036Z,1018.96
2018-12-15T02:33:30.007Z,1018.95
2018-12-15T02:34:29.998Z,1018.96
2018-12-15T02:35:29.988Z,1018.99
2018-12-15T02:36:29.972Z,1018.99
2018-12-15T02:37:29.990Z,1018.99
2018-12-15T02:38:29.951Z,1018.98
2018-12-15T02:39:29.954Z,1019.01
2018-12-15T02:40:29.933Z,1018.96
2018-12-15T02:41:29.919Z,1019.04
2018-12-15T02:42:29.937Z,1019.05
2018-12-15T02:43:29.897Z,1019.01
2018-12-15T02:44:29.886Z,1019.06
2018-12-15T02:45:29.877Z,1019.07
2018-12-15T02:46:29.868Z,1019.07
2018-12-15T02:47:29.874Z,1019.06
2018-12-15T02:48:29.845Z,1019.08
2018-12-15T02:49:29.835Z,1019.02
2018-12-15T02:50:29.821Z,1019.05
2018-12-15T02:51:29.813Z,1018.96
2018-12-15T02:52:29.821Z,1018.99
2018-12-15T02:53:29.788Z,1018.99
2018-12-15T02:54:29.778Z,1018.98
2018-12-15T02:55:29.767Z,1018.96
2018-12-15T02:56:29.755Z,1018.93
2018-12-15T02:57:29.765Z,1018.90
2018-12-15T02:58:29.735Z,1018.93
2018-12-15T02:59:29.723Z,1018.86
2018-12-15T03:00:29.715Z,1018.89
2018-12-15T03:01:29.726Z,1018.90
2018-12-15T03:02:29.712Z,1018.93
2018-12-15T03:03:29.680Z,1018.91
2018-12-15T03:04:29.671Z,1018.91
2018-12-15T03:05:29.658Z,1018.86
2018-12-15T03:06:29.648Z,1018.86
2018-12-15T03:07:29.667Z,1018.88
2018-12-15T03:08:29.626Z,1018.91
2018-12-15T03:09:29.614Z,1018.86
2018-12-15T03:10:29.603Z,1018.85
2018-12-15T03:11:29.594Z,1018.84
2018-12-15T03:12:29.605Z,1018.88
2018-12-15T03:13:29.571Z,1018.84
2018-12-15T03:14:29.573Z,1018.80
2018-12-15T03:15:29.549Z,1018.83
2018-12-15T03:16:29.543Z,1018.83
2018-12-15T03:17:29.552Z,1018.82
2018-12-15T03:18:29.516Z,1018.79
2018-12-15T03:19:29.505Z,1018.78
2018-12-15T03:20:29.497Z,1018.76
2018-12-15T03:21:29.487Z,1018.72
2018-12-15T03:22:29.495Z,1018.72
2018-12-15T03:23:29.462Z,1018.71
2018-12-15T03:24:29.451Z,1018.73
2018-12-15T03:25:29.443Z,1018.74
2018-12-15T03:26:29.430Z,1018.69
2018-12-15T03:27:29.455Z,1018.69
2018-12-15T03:28:29.407Z,1018.68
2018-12-15T03:29:29.403Z,1018.62
2018-12-15T03:30:29.387Z,1018.64
2018-12-15T03:31:29.376Z,1018.57
2018-12-15T03:32:29.375Z,1018.62
2018-12-15T03:33:29.378Z,1018.62
2018-12-15T03:34:29.345Z,1018.65
2018-12-15T03:35:29.333Z,1018.61
2018-12-15T03:36:29.321Z,1018.62
2018-12-15T03:37:29.313Z,1018.58
2018-12-15T03:38:29.322Z,1018.59
2018-12-15T03:39:29.289Z,1018.55
2018-12-15T03:40:29.276Z,1018.57
2018-12-15T03:41:29.266Z,1018.58
2018-12-15T03:42:29.259Z,1018.56
2018-12-15T03:43:29.264Z,1018.58
2018-12-15T03:44:29.233Z,1018.59
2018-12-15T03:45:29.225Z,1018.59
2018-12-15T03:46:29.213Z,1018.55
2018-12-15T03:47:29.200Z,1018.56
2018-12-15T03:48:29.211Z,1018.60
2018-12-15T03:49:29.181Z,1018.58
2018-12-15T03:50:29.170Z,1018.51
2018-12-15T03:51:29.164Z,1018.53
2018-12-15T03:52:29.169Z,1018.51
2018-12-15T03:53:29.162Z,1018.51
2018-12-15T03:54:29.128Z,1018.47
2018-12-15T03:55:29.114Z,1018.45
2018-12-15T03:56:29.103Z,1018.45
2018-12-15T03:57:29.095Z,1018.43
2018-12-15T03:58:29.101Z,1018.39
2018-12-15T03:59:29.072Z,1018.39
2018-12-15T04:00:29.090Z,1018.42
2018-12-15T04:01:29.054Z,1018.40
2018-12-15T04:02:29.046Z,1018.44
2018-12-15T04:03:29.102Z,1018.42
2018-12-15T04:04:29.024Z,1018.40
2018-12-15T04:05:29.013Z,1018.46
2018-12-15T04:06:28.996Z,1018.43
2018-12-15T04:07:28.986Z,1018.48
2018-12-15T04:08:28.999Z,1018.43
2018-12-15T04:09:28.968Z,1018.47
2018-12-15T04:10:28.959Z,1018.45
2018-12-15T04:11:28.944Z,1018.46
2018-12-15T04:12:28.932Z,1018.44
2018-12-15T04:13:28.941Z,1018.38
2018-12-15T04:14:28.911Z,1018.38
2018-12-15T04:15:28.900Z,1018.37
2018-12-15T04:16:28.889Z,1018.40
2018-12-15T04:17:28.884Z,1018.43
2018-12-15T04:18:28.886Z,1018.42
2018-12-15T04:19:28.859Z,1018.41
2018-12-15T04:20:28.849Z,1018.40
2018-12-15T04:21:28.838Z,1018.43
2018-12-15T04:22:28.826Z,1018.37
2018-12-15T04:23:28.833Z,1018.44
2018-12-15T04:24:28.803Z,1018.40
2018-12-15T04:25:28.792Z,1018.38
2018-12-15T04:26:28.781Z,1018.36
2018-12-15T04:27:28.772Z,1018.38
2018-12-15T04:28:28.779Z,1018.40
2018-12-15T04:29:28.749Z,1018.37
2018-12-15T04:30:28.737Z,1018.35
2018-12-15T04:31:28.729Z,1018.41
2018-12-15T04:32:28.719Z,1018.36
2018-12-15T04:33:28.727Z,1018.39
2018-12-15T04:34:28.695Z,1018.37
2018-12-15T04:35:28.703Z,1018.33
2018-12-15T04:36:28.674Z,1018.36
2018-12-15T04:37:28.660Z,1018.37
2018-12-15T04:38:28.675Z,1018.39
2018-12-15T04:39:28.643Z,1018.35
2018-12-15T04:40:28.630Z,1018.38
2018-12-15T04:41:28.618Z,1018.37
2018-12-15T04:42:28.618Z,1018.41
2018-12-15T04:43:28.616Z,1018.37
2018-12-15T04:44:28.647Z,1018.36
2018-12-15T04:45:28.578Z,1018.39
2018-12-15T04:46:28.567Z,1018.36
2018-12-15T04:47:28.555Z,1018.40
2018-12-15T04:48:28.563Z,1018.42
2018-12-15T04:49:28.531Z,1018.40
2018-12-15T04:50:28.521Z,1018.33
2018-12-15T04:51:28.510Z,1018.30
2018-12-15T04:52:28.501Z,1018.32
2018-12-15T04:53:28.513Z,1018.31
2018-12-15T04:54:28.478Z,1018.30
2018-12-15T04:55:28.471Z,1018.32
2018-12-15T04:56:28.470Z,1018.30
2018-12-15T04:57:28.449Z,1018.32
2018-12-15T04:58:28.456Z,1018.29
2018-12-15T04:59:28.427Z,1018.31
2018-12-15T05:00:28.415Z,1018.31
2018-12-15T05:01:28.403Z,1018.32
2018-12-15T05:02:28.394Z,1018.32
2018-12-15T05:03:28.412Z,1018.37
2018-12-15T05:04:28.371Z,1018.35
2018-12-15T05:05:28.362Z,1018.34
2018-12-15T05:06:28.353Z,1018.36
2018-12-15T05:07:28.338Z,1018.28
2018-12-15T05:08:28.349Z,1018.27
2018-12-15T05:09:28.316Z,1018.30
2018-12-15T05:10:28.306Z,1018.26
2018-12-15T05:11:28.294Z,1018.25
2018-12-15T05:12:28.287Z,1018.28
2018-12-15T05:13:28.585Z,1018.25
2018-12-15T05:14:28.262Z,1018.32
2018-12-15T05:15:28.254Z,1018.30
2018-12-15T05:16:28.251Z,1018.35
2018-12-15T05:17:28.230Z,1018.35
2018-12-15T05:18:28.221Z,1018.32
2018-12-15T05:19:28.230Z,1018.27
2018-12-15T05:20:28.200Z,1018.32
2018-12-15T05:21:28.190Z,1018.28
2018-12-15T05:22:28.176Z,1018.31
2018-12-15T05:23:28.166Z,1018.32
2018-12-15T05:24:28.175Z,1018.34
2018-12-15T05:25:28.150Z,1018.36
2018-12-15T05:26:28.134Z,1018.36
2018-12-15T05:27:28.121Z,1018.37
2018-12-15T05:28:28.120Z,1018.36
2018-12-15T05:29:28.120Z,1018.35
2018-12-15T05:30:28.091Z,1018.31
2018-12-15T05:31:28.086Z,1018.37
2018-12-15T05:32:28.072Z,1018.35
2018-12-15T05:33:28.060Z,1018.42
2018-12-15T05:34:28.069Z,1018.35
2018-12-15T05:35:28.038Z,1018.34
2018-12-15T05:36:28.029Z,1018.44
2018-12-15T05:37:28.015Z,1018.34
2018-12-15T05:38:28.037Z,1018.40
2018-12-15T05:39:28.013Z,1018.41
2018-12-15T05:40:27.981Z,1018.38
2018-12-15T05:41:27.979Z,1018.33
2018-12-15T05:42:27.964Z,1018.30
2018-12-15T05:43:27.949Z,1018.39
2018-12-15T05:44:27.957Z,1018.34
2018-12-15T05:45:27.928Z,1018.35
2018-12-15T05:46:27.918Z,1018.37
2018-12-15T05:47:27.909Z,1018.37
2018-12-15T05:48:27.902Z,1018.38
2018-12-15T05:49:27.904Z,1018.35
2018-12-15T05:50:27.880Z,1018.37
2018-12-15T05:51:27.863Z,1018.37
2018-12-15T05:52:27.859Z,1018.40
2018-12-15T05:53:27.843Z,1018.42
2018-12-15T05:54:27.852Z,1018.36
2018-12-15T05:55:27.835Z,1018.40
2018-12-15T05:56:27.809Z,1018.39
2018-12-15T05:57:27.799Z,1018.39
2018-12-15T05:58:27.788Z,1018.41
2018-12-15T05:59:27.799Z,1018.41
2018-12-15T06:00:27.771Z,1018.44
2018-12-15T06:01:27.759Z,1018.38
2018-12-15T06:02:27.746Z,1018.39
2018-12-15T06:03:27.734Z,1018.43
2018-12-15T06:04:27.743Z,1018.38
2018-12-15T06:05:27.716Z,1018.39
2018-12-15T06:06:27.718Z,1018.41
2018-12-15T06:07:27.702Z,1018.37
2018-12-15T06:08:27.680Z,1018.38
2018-12-15T06:09:27.691Z,1018.38
2018-12-15T06:10:27.658Z,1018.34
2018-12-15T06:11:27.651Z,1018.38
2018-12-15T06:12:27.685Z,1018.33
2018-12-15T06:13:27.624Z,1018.39
2018-12-15T06:14:27.635Z,1018.38
2018-12-15T06:15:27.604Z,1018.39
2018-12-15T06:16:27.593Z,1018.35
2018-12-15T06:17:27.591Z,1018.41
2018-12-15T06:18:31.605Z,1018.38
2018-12-15T06:19:27.582Z,1018.42
2018-12-15T06:20:27.553Z,1018.40
2018-12-15T06:21:35.953Z,1018.39
2018-12-15T06:22:37.229Z,1018.37
2018-12-15T06:23:27.523Z,1018.40
2018-12-15T06:24:27.532Z,1018.34
2018-12-15T06:25:27.502Z,1018.38
2018-12-15T06:26:27.484Z,1018.36
2018-12-15T06:27:27.477Z,1018.34
2018-12-15T06:28:27.463Z,1018.32
2018-12-15T06:29:27.472Z,1018.31
2018-12-15T06:30:35.737Z,1018.33
2018-12-15T06:31:27.435Z,1018.34
2018-12-15T06:32:27.419Z,1018.33
2018-12-15T06:33:27.410Z,1018.29
2018-12-15T06:34:27.419Z,1018.31
2018-12-15T06:35:27.387Z,1018.26
2018-12-15T06:36:27.433Z,1018.32
2018-12-15T06:37:27.369Z,1018.30
2018-12-15T06:38:27.355Z,1018.30
2018-12-15T06:39:27.367Z,1018.34
2018-12-15T06:40:27.337Z,1018.34
2018-12-15T06:41:27.323Z,1018.38
2018-12-15T06:42:27.312Z,1018.36
2018-12-15T06:43:27.302Z,1018.38
2018-12-15T06:44:27.312Z,1018.37
2018-12-15T06:45:27.281Z,1018.35
2018-12-15T06:46:27.289Z,1018.38
2018-12-15T06:47:27.262Z,1018.39
2018-12-15T06:48:27.248Z,1018.37
2018-12-15T06:49:27.258Z,1018.43
2018-12-15T06:50:27.226Z,1018.48
2018-12-15T06:51:27.220Z,1018.46
2018-12-15T06:52:27.203Z,1018.42
2018-12-15T06:53:36.989Z,1018.40
2018-12-15T06:54:27.200Z,1018.43
2018-12-15T06:55:27.171Z,1018.36
2018-12-15T06:56:27.160Z,1018.38
2018-12-15T06:57:27.148Z,1018.36
2018-12-15T06:58:27.143Z,1018.39
2018-12-15T06:59:27.150Z,1018.46
2018-12-15T07:00:27.119Z,1018.44
2018-12-15T07:01:27.104Z,1018.46
2018-12-15T07:02:27.095Z,1018.43
2018-12-15T07:03:27.089Z,1018.47
2018-12-15T07:04:27.096Z,1018.45
2018-12-15T07:05:27.066Z,1018.49
2018-12-15T07:06:27.052Z,1018.48
2018-12-15T07:07:27.048Z,1018.47
2018-12-15T07:08:27.028Z,1018.51
2018-12-15T07:09:27.054Z,1018.52
2018-12-15T07:10:27.010Z,1018.52
2018-12-15T07:11:26.996Z,1018.52
2018-12-15T07:12:26.986Z,1018.51
2018-12-15T07:13:26.976Z,1018.52
2018-12-15T07:14:26.969Z,1018.51
2018-12-15T07:15:26.984Z,1018.53
2018-12-15T07:16:26.944Z,1018.47
2018-12-15T07:17:26.933Z,1018.46
2018-12-15T07:18:35.446Z,1018.49
2018-12-15T07:19:26.909Z,1018.47
2018-12-15T07:20:26.919Z,1018.51
2018-12-15T07:21:26.889Z,1018.49
2018-12-15T07:22:26.877Z,1018.47
2018-12-15T07:23:26.877Z,1018.47
2018-12-15T07:24:26.855Z,1018.49
2018-12-15T07:25:26.864Z,1018.44
2018-12-15T07:26:26.834Z,1018.45
2018-12-15T07:27:26.823Z,1018.41
2018-12-15T07:28:26.813Z,1018.45
2018-12-15T07:29:26.801Z,1018.46
2018-12-15T07:30:26.809Z,1018.47
2018-12-15T07:31:26.985Z,1018.46
2018-12-15T07:32:26.772Z,1018.47
2018-12-15T07:33:26.758Z,1018.46
2018-12-15T07:34:36.474Z,1018.47
2018-12-15T07:35:26.759Z,1018.46
2018-12-15T07:36:26.730Z,1018.51
2018-12-15T07:37:26.714Z,1018.52
2018-12-15T07:38:26.704Z,1018.47
2018-12-15T07:39:26.697Z,1018.51
2018-12-15T07:40:26.706Z,1018.45
2018-12-15T07:41:26.674Z,1018.41
2018-12-15T07:42:26.662Z,1018.40
2018-12-15T07:43:35.447Z,1018.38
2018-12-15T07:44:26.642Z,1018.35
2018-12-15T07:45:26.647Z,1018.32
2018-12-15T07:46:26.617Z,1018.32
2018-12-15T07:47:35.886Z,1018.35
2018-12-15T07:48:26.601Z,1018.31
2018-12-15T07:49:26.588Z,1018.35
2018-12-15T07:50:26.599Z,1018.33
2018-12-15T07:51:26.568Z,1018.35
2018-12-15T07:52:26.554Z,1018.25
2018-12-15T07:53:26.540Z,1018.24
2018-12-15T07:54:26.538Z,1018.28
2018-12-15T07:55:26.541Z,1018.25
2018-12-15T07:56:26.513Z,1018.21
2018-12-15T07:57:26.502Z,1018.19
2018-12-15T07:58:26.490Z,1018.20
2018-12-15T07:59:26.479Z,1018.23
2018-12-15T08:00:26.486Z,1018.20
2018-12-15T08:01:26.455Z,1018.12
2018-12-15T08:02:26.444Z,1018.20
2018-12-15T08:03:26.435Z,1018.18
2018-12-15T08:04:26.424Z,1018.16
2018-12-15T08:05:26.435Z,1018.18
2018-12-15T08:06:26.402Z,1018.19
2018-12-15T08:07:27.333Z,1018.20
2018-12-15T08:08:26.384Z,1018.23
2018-12-15T08:09:26.369Z,1018.20
2018-12-15T08:10:26.384Z,1018.24
2018-12-15T08:11:26.351Z,1018.25
2018-12-15T08:12:26.338Z,1018.32
2018-12-15T08:13:26.325Z,1018.26
2018-12-15T08:14:26.318Z,1018.31
2018-12-15T08:15:26.328Z,1018.29
2018-12-15T08:16:26.293Z,1018.29
2018-12-15T08:17:26.283Z,1018.30
2018-12-15T08:18:26.272Z,1018.37
2018-12-15T08:19:26.262Z,1018.40
2018-12-15T08:20:26.302Z,1018.37
2018-12-15T08:21:26.250Z,1018.37
2018-12-15T08:22:26.391Z,1018.38
2018-12-15T08:23:34.506Z,1018.39
2018-12-15T08:24:26.206Z,1018.39
2018-12-15T08:25:35.010Z,1018.44
2018-12-15T08:26:26.206Z,1018.41
2018-12-15T08:27:26.174Z,1018.44
2018-12-15T08:28:26.173Z,1018.49
2018-12-15T08:29:26.161Z,1018.43
2018-12-15T08:30:26.168Z,1018.47
2018-12-15T08:31:26.137Z,1018.49
2018-12-15T08:32:35.538Z,1018.48
2018-12-15T08:33:26.110Z,1018.49
2018-12-15T08:34:26.101Z,1018.45
2018-12-15T08:35:34.683Z,1018.49
2018-12-15T08:36:26.080Z,1018.54
2018-12-15T08:37:26.067Z,1018.51
2018-12-15T08:38:26.054Z,1018.55
2018-12-15T08:39:26.045Z,1018.55
2018-12-15T08:40:26.055Z,1018.57
2018-12-15T08:41:26.028Z,1018.54
2018-12-15T08:42:26.016Z,1018.61
2018-12-15T08:43:26.026Z,1018.65
2018-12-15T08:44:26.338Z,1018.60
2018-12-15T08:45:26.003Z,1018.64
2018-12-15T08:46:35.281Z,1018.64
2018-12-15T08:47:25.970Z,1018.67
2018-12-15T08:48:34.508Z,1018.60
2018-12-15T08:49:25.936Z,1018.59
2018-12-15T08:50:25.948Z,1018.61
2018-12-15T08:51:25.918Z,1018.62
2018-12-15T08:52:25.910Z,1018.60
2018-12-15T08:53:25.904Z,1018.55
2018-12-15T08:54:25.883Z,1018.57
2018-12-15T08:55:25.916Z,1018.57
2018-12-15T08:56:25.864Z,1018.57
2018-12-15T08:57:25.859Z,1018.61
2018-12-15T08:58:25.839Z,1018.55
2018-12-15T08:59:25.831Z,1018.62
2018-12-15T09:00:25.819Z,1018.61
2018-12-15T09:01:25.829Z,1018.63
2018-12-15T09:03:19.219Z,1018.59
2018-12-15T09:04:19.191Z,1018.65
2018-12-15T09:05:19.183Z,1018.60
2018-12-15T09:06:27.972Z,1018.63
2018-12-15T09:07:19.162Z,1018.63
2018-12-15T09:08:19.182Z,1018.66
2018-12-15T09:09:19.138Z,1018.71
2018-12-15T09:10:19.135Z,1018.65
2018-12-15T09:11:19.135Z,1018.73
2018-12-15T09:12:19.102Z,1018.70
2018-12-15T09:13:19.095Z,1018.69
2018-12-15T09:14:19.088Z,1018.70
2018-12-15T09:15:27.489Z,1018.67
2018-12-15T09:16:19.305Z,1018.72
2018-12-15T09:17:27.629Z,1018.70
2018-12-15T09:18:19.064Z,1018.73
2018-12-15T09:19:19.041Z,1018.74
2018-12-15T09:20:19.016Z,1018.77
2018-12-15T09:21:19.027Z,1018.74
2018-12-15T09:22:18.996Z,1018.71
2018-12-15T09:23:18.986Z,1018.76
2018-12-15T09:24:18.977Z,1018.79
2018-12-15T09:25:18.964Z,1018.76
2018-12-15T09:26:18.970Z,1018.79
2018-12-15T09:27:18.941Z,1018.73
2018-12-15T09:28:18.930Z,1018.71
2018-12-15T09:29:27.470Z,1018.77
2018-12-15T09:30:18.911Z,1018.75
2018-12-15T09:31:18.919Z,1018.76
2018-12-15T09:32:18.888Z,1018.78
2018-12-15T09:33:18.874Z,1018.77
2018-12-15T09:34:18.864Z,1018.82
2018-12-15T09:35:18.853Z,1018.80
2018-12-15T09:36:18.862Z,1018.87
2018-12-15T09:37:18.845Z,1018.84
2018-12-15T09:38:18.821Z,1018.80
2018-12-15T09:39:18.808Z,1018.84
2018-12-15T09:40:27.108Z,1018.84
2018-12-15T09:41:18.809Z,1018.80
2018-12-15T09:42:18.777Z,1018.85
2018-12-15T09:43:18.764Z,1018.82
2018-12-15T09:44:18.754Z,1018.82
2018-12-15T09:45:18.774Z,1018.80
2018-12-15T09:46:18.762Z,1018.84
2018-12-15T09:47:18.723Z,1018.85
2018-12-15T09:48:18.719Z,1018.85
2018-12-15T09:49:18.701Z,1018.80
2018-12-15T09:50:18.749Z,1018.81
2018-12-15T09:51:18.711Z,1018.82
2018-12-15T09:52:18.668Z,1018.88
2018-12-15T09:53:18.657Z,1018.84
2018-12-15T09:54:18.652Z,1018.81
2018-12-15T09:55:18.632Z,1018.82
2018-12-15T09:56:18.646Z,1018.82
2018-12-15T09:57:18.611Z,1018.86
2018-12-15T09:58:18.603Z,1018.85
2018-12-15T09:59:18.590Z,1018.84
2018-12-15T10:00:18.579Z,1018.81
2018-12-15T10:01:18.891Z,1018.80
2018-12-15T10:02:18.559Z,1018.78
2018-12-15T10:03:18.545Z,1018.73
2018-12-15T10:04:18.537Z,1018.78
2018-12-15T10:05:18.524Z,1018.80
2018-12-15T10:06:18.538Z,1018.73
2018-12-15T10:07:18.504Z,1018.70
2018-12-15T10:08:18.493Z,1018.71
2018-12-15T10:09:18.481Z,1018.67
2018-12-15T10:10:18.471Z,1018.63
2018-12-15T10:11:18.480Z,1018.64
2018-12-15T10:12:18.475Z,1018.65
2018-12-15T10:13:18.440Z,1018.64
2018-12-15T10:14:18.446Z,1018.61
2018-12-15T10:15:18.415Z,1018.57
2018-12-15T10:16:18.427Z,1018.64
2018-12-15T10:17:18.397Z,1018.58
2018-12-15T10:18:18.387Z,1018.53
2018-12-15T10:19:24.094Z,1018.54
2018-12-15T10:20:18.364Z,1018.55
2018-12-15T10:21:18.380Z,1018.54
2018-12-15T10:22:18.340Z,1018.54
2018-12-15T10:23:18.328Z,1018.54
2018-12-15T10:24:18.318Z,1018.50
2018-12-15T10:25:18.306Z,1018.49
2018-12-15T10:26:18.315Z,1018.53
2018-12-15T10:27:27.563Z,1018.42
2018-12-15T10:28:18.274Z,1018.41
2018-12-15T10:29:18.267Z,1018.38
2018-12-15T10:30:18.252Z,1018.30
2018-12-15T10:31:18.260Z,1018.30
2018-12-15T10:32:18.234Z,1018.29
2018-12-15T10:33:26.783Z,1018.32
2018-12-15T10:34:18.209Z,1018.25
2018-12-15T10:35:18.200Z,1018.21
2018-12-15T10:36:18.209Z,1018.25
2018-12-15T10:37:18.184Z,1018.20
2018-12-15T10:38:18.292Z,1018.19
2018-12-15T10:39:26.635Z,1018.21
2018-12-15T10:40:18.148Z,1018.17
2018-12-15T10:41:18.162Z,1018.14
2018-12-15T10:42:18.122Z,1018.13
2018-12-15T10:43:18.110Z,1018.13
2018-12-15T10:44:18.098Z,1018.05
2018-12-15T10:45:18.088Z,1018.09
2018-12-15T10:46:18.077Z,1018.06
2018-12-15T10:47:18.085Z,1018.01
2018-12-15T10:48:18.149Z,1018.03
2018-12-15T10:49:18.045Z,1018.03
2018-12-15T10:50:18.036Z,1017.99
2018-12-15T10:51:18.022Z,1017.99
2018-12-15T10:52:18.043Z,1017.96
2018-12-15T10:53:18.002Z,1018.00
2018-12-15T10:54:17.992Z,1017.98
2018-12-15T10:55:17.980Z,1017.96
2018-12-15T10:56:17.968Z,1017.91
2018-12-15T10:57:17.977Z,1017.96
2018-12-15T10:58:17.946Z,1017.94
2018-12-15T10:59:17.937Z,1017.92
2018-12-15T11:00:17.928Z,1017.86
2018-12-15T11:01:17.915Z,1017.82
2018-12-15T11:02:17.928Z,1017.78
2018-12-15T11:03:17.890Z,1017.80
2018-12-15T11:04:17.882Z,1017.79
2018-12-15T11:05:17.880Z,1017.73
2018-12-15T11:06:17.863Z,1017.78
2018-12-15T11:07:17.868Z,1017.79
2018-12-15T11:08:17.845Z,1017.76
2018-12-15T11:09:17.826Z,1017.75
2018-12-15T11:10:17.816Z,1017.78
2018-12-15T11:11:17.804Z,1017.77
2018-12-15T11:12:17.816Z,1017.66
2018-12-15T11:13:17.783Z,1017.70
2018-12-15T11:14:17.772Z,1017.77
2018-12-15T11:15:17.763Z,1017.71
2018-12-15T11:16:17.757Z,1017.74
2018-12-15T11:17:17.767Z,1017.73
2018-12-15T11:18:17.727Z,1017.75
2018-12-15T11:19:17.718Z,1017.70
2018-12-15T11:20:17.712Z,1017.71
2018-12-15T11:21:17.700Z,1017.71
2018-12-15T11:22:17.739Z,1017.74
2018-12-15T11:23:17.675Z,1017.71
2018-12-15T11:24:17.662Z,1017.65
2018-12-15T11:25:26.011Z,1017.60
2018-12-15T11:26:17.641Z,1017.59
2018-12-15T11:27:17.651Z,1017.57
2018-12-15T11:28:17.619Z,1017.57
2018-12-15T11:29:17.609Z,1017.54
2018-12-15T11:30:17.597Z,1017.50
2018-12-15T11:31:17.595Z,1017.52
2018-12-15T11:32:17.616Z,1017.50
2018-12-15T11:33:17.575Z,1017.50
2018-12-15T11:34:17.645Z,1017.50
2018-12-15T11:35:17.543Z,1017.42
2018-12-15T11:36:17.533Z,1017.42
2018-12-15T11:37:17.546Z,1017.43
2018-12-15T11:38:17.514Z,1017.44
2018-12-15T11:39:17.523Z,1017.43
2018-12-15T11:40:17.506Z,1017.43
2018-12-15T11:41:17.482Z,1017.43
2018-12-15T11:42:17.583Z,1017.37
2018-12-15T11:43:17.469Z,1017.43
2018-12-15T11:44:17.448Z,1017.44
2018-12-15T11:45:17.440Z,1017.40
2018-12-15T11:46:17.521Z,1017.39
2018-12-15T11:47:17.432Z,1017.36
2018-12-15T11:48:17.416Z,1017.30
2018-12-15T11:49:17.398Z,1017.27
2018-12-15T11:50:17.570Z,1017.28
2018-12-15T11:51:17.387Z,1017.31
2018-12-15T11:52:17.393Z,1017.26
2018-12-15T11:53:17.393Z,1017.26
2018-12-15T11:54:17.338Z,1017.23
2018-12-15T11:55:17.325Z,1017.24
2018-12-15T11:56:17.328Z,1017.21
2018-12-15T11:57:17.325Z,1017.18
2018-12-15T11:58:17.291Z,1017.17
2018-12-15T11:59:17.281Z,1017.11
2018-12-15T12:00:17.270Z,1017.12
2018-12-15T12:01:17.268Z,1017.08
2018-12-15T12:02:17.269Z,1017.04
2018-12-15T12:03:17.242Z,1016.97
2018-12-15T12:04:17.233Z,1016.97
2018-12-15T12:05:17.214Z,1016.94
2018-12-15T12:06:17.205Z,1016.91